Details From LFLL - Lyon Saint Exupery
To LIRA - Ciampino
Flight Number -
Tags Generated
Created
Modified
Stats Distance 401 nm / 743 km
Max Altitude 0 ft / 0 m
Waypoints 5
Social Downloads 1
Likes 0
Share VATSIM

Download

Looking for another format? Having issues loading an existing format? Contact us
Advertisement - Login to hide

Notes

Generated

Route

LFLL LEV NORNI R1815 LIRA

ID Type Via Altitude Latitude Longitude Leg Dist Tot Dist Heading (true) Name
O LFLL APT - 0 ft / 0 m 45.73499˚ 5.09188˚ - 0 nm - Lyon Saint Exupery
LEV NDB - 0 ft / 0 m 44.54422˚ 7.61539˚ 128 nm 128 nm 123° / 125° LEVALDIGI NDB
NORNI FIX - 0 ft / 0 m 43.27889˚ 9.97972˚ 127 nm 256 nm 126° / 127° -
R1815 FIX - 0 ft / 0 m 41.80806˚ 12.58883˚ 145 nm 401 nm 127° / 128° -
O LIRA APT - 0 ft / 0 m 41.80806˚ 12.58883˚ 0 nm 401 nm 0° / 180° -

Altitude Profile

Advertisement - Login to hide

Weather


0- 5 10 15 20 25 30 35+ Temperature / ° C

Clouds and Precipitation
Forecast for 2017-12-11 18:00 UTC. Updated 24 minutes ago

Ground ~20,000 ft ~40,000 ft Winds

LFLL

Details ICAO LFLL (LYS)
Name Lyon Saint Exupery
Region France
Timezone Europe/Paris (UTC+1.0)
Stats Elevation 820 ft / 250 m (AMSL)
Location 45.725812° 5.090748°
Runways 2
Magnetic Variation 1.487° E

METAR

LFLL 111730Z 16011KT CAVOK 08/04 Q0989 NOSIG

Decode

TAF

TAF LFLL 111100Z 1112/1218 24015KT 9999 -RA SCT020 OVC040 PROB40 TEMPO 1112/1113 4000 RA BKN020 BECMG 1113/1115 18015G25KT CAVOK BECMG 1200/1202 34005KT TEMPO 1200/1207 4000 -RA BKN009 TEMPO 1207/1211 BKN006 PROB30 TEMPO 1207/1211 VRB02KT 2000 -SNRA BKN004

Decode

Departure Runways

ID Width Length Bearing (true) Bearing (mag) Surface Threshold Offset Overrun Length
18L 148 ft / 45 m 8,798 ft / 2,682 m 175.13° 173.64° Asphalt 33 ft / 10 m 52 ft / 16 m
18R 148 ft / 45 m 13,149 ft / 4,008 m 175.14° 173.65° Asphalt 16 ft / 5 m 203 ft / 62 m
36L 148 ft / 45 m 13,149 ft / 4,008 m 355.15° 353.66° Asphalt 36 ft / 11 m 151 ft / 46 m
36R 148 ft / 45 m 8,798 ft / 2,682 m 355.13° 353.64° Asphalt 26 ft / 8 m 52 ft / 16 m

LIRA

Details ICAO LIRA (CIA)
Name CIAMPINO
Region Italy
Timezone Europe/Rome (UTC+1.0)
Stats Elevation 427 ft / 130 m (AMSL)
Location 41.799228° 12.594917°
Runways 1
Magnetic Variation 3.057° E

METAR

LIRA 111720Z 16019G31KT 9999 BKN015 14/10 Q1007

Decode

TAF

TAF LIRA 111100Z 1112/1212 17015G25KT 9999 SCT018 SCT040 BECMG 1116/1108 VRB06KT

Decode

Destination Runways

ID Width Length Bearing (true) Bearing (mag) Surface Threshold Offset Overrun Length
15 154 ft / 47 m 7,246 ft / 2,209 m 152.79° 149.73° Asphalt 0 ft / 0 m 0 ft / 0 m
33 154 ft / 47 m 7,246 ft / 2,209 m 332.80° 329.74° Asphalt 0 ft / 0 m 0 ft / 0 m

Approach Navaids

Runway Type Ident Frequency Range Bearing (true) Bearing (mag) Slope Elevation
15 Localiser CIA 109.90 MHz 18 nm / 33 km 152.81° 149.75° - 426 ft / 130 m (AMSL)
15 Glidescope CIA 109.90 MHz 10 nm / 19 km 152.79° 149.74° 3.00° 384 ft / 117 m (AMSL)

Popular Alternatives